sensor_id;sensor_type;location;lat;lon;timestamp;pressure;altitude;pressure_sealevel;temperature;humidity
76086;BME280;64791;0.000;0.000;2023-05-25T00:00:20;93721.50;;;13.55;63.61
76086;BME280;64791;0.000;0.000;2023-05-25T00:02:46;93726.41;;;13.47;63.25
76086;BME280;64791;0.000;0.000;2023-05-25T00:05:11;93727.69;;;13.29;64.57
76086;BME280;64791;0.000;0.000;2023-05-25T00:07:37;93738.56;;;13.10;65.49
76086;BME280;64791;0.000;0.000;2023-05-25T00:10:04;93737.56;;;12.80;66.48
76086;BME280;64791;0.000;0.000;2023-05-25T00:12:30;93745.97;;;12.65;66.77
76086;BME280;64791;0.000;0.000;2023-05-25T00:14:55;93748.72;;;12.41;68.42
76086;BME280;64791;0.000;0.000;2023-05-25T00:17:21;93746.63;;;12.24;68.47
76086;BME280;64791;0.000;0.000;2023-05-25T00:19:48;93758.16;;;12.05;69.51
76086;BME280;64791;0.000;0.000;2023-05-25T00:22:14;93762.78;;;11.95;70.65
76086;BME280;64791;0.000;0.000;2023-05-25T00:24:39;93758.09;;;11.73;72.73
76086;BME280;64791;0.000;0.000;2023-05-25T00:27:05;93758.84;;;11.66;73.01
76086;BME280;64791;0.000;0.000;2023-05-25T00:29:31;93758.63;;;11.72;73.21
76086;BME280;64791;0.000;0.000;2023-05-25T00:31:59;93751.09;;;11.72;73.08
76086;BME280;64791;0.000;0.000;2023-05-25T00:34:24;93754.59;;;11.65;73.26
76086;BME280;64791;0.000;0.000;2023-05-25T00:36:50;93756.22;;;11.76;72.49
76086;BME280;64791;0.000;0.000;2023-05-25T00:39:16;93751.09;;;11.72;72.60
76086;BME280;64791;0.000;0.000;2023-05-25T00:41:43;93759.50;;;11.89;71.87
76086;BME280;64791;0.000;0.000;2023-05-25T00:44:09;93756.22;;;11.76;72.40
76086;BME280;64791;0.000;0.000;2023-05-25T00:46:34;93758.09;;;11.73;72.24
76086;BME280;64791;0.000;0.000;2023-05-25T00:49:01;93753.28;;;11.81;71.88
76086;BME280;64791;0.000;0.000;2023-05-25T00:51:26;93754.28;;;12.01;71.82
76086;BME280;64791;0.000;0.000;2023-05-25T00:53:53;93754.25;;;12.08;71.09
76086;BME280;64791;0.000;0.000;2023-05-25T00:56:28;93753.97;;;11.89;71.24
76086;BME280;64791;0.000;0.000;2023-05-25T00:58:54;93753.63;;;11.85;71.70
76086;BME280;64791;0.000;0.000;2023-05-25T01:01:23;93751.53;;;12.01;71.19
76086;BME280;64791;0.000;0.000;2023-05-25T01:03:50;93756.72;;;11.89;71.36
76086;BME280;64791;0.000;0.000;2023-05-25T01:06:19;93749.44;;;11.69;71.35
76086;BME280;64791;0.000;0.000;2023-05-25T01:08:48;93749.81;;;11.66;72.21
76086;BME280;64791;0.000;0.000;2023-05-25T01:11:14;93752.63;;;11.58;72.12
76086;BME280;64791;0.000;0.000;2023-05-25T01:13:42;93737.56;;;11.52;71.89
76086;BME280;64791;0.000;0.000;2023-05-25T01:16:08;93748.78;;;11.54;72.06
76086;BME280;64791;0.000;0.000;2023-05-25T01:18:34;93747.59;;;11.72;71.54
76086;BME280;64791;0.000;0.000;2023-05-25T01:21:16;93748.72;;;11.69;71.07
76086;BME280;64791;0.000;0.000;2023-05-25T01:23:50;93747.41;;;11.77;71.21
76086;BME280;64791;0.000;0.000;2023-05-25T01:26:17;93749.06;;;11.73;70.51
76086;BME280;64791;0.000;0.000;2023-05-25T01:28:48;93747.81;;;11.66;70.17
76086;BME280;64791;0.000;0.000;2023-05-25T01:31:16;93751.56;;;11.46;71.79
76086;BME280;64791;0.000;0.000;2023-05-25T01:33:43;93756.19;;;11.36;72.25
76086;BME280;64791;0.000;0.000;2023-05-25T01:36:09;93764.66;;;11.30;72.01
76086;BME280;64791;0.000;0.000;2023-05-25T01:38:35;93766.66;;;11.45;71.83
76086;BME280;64791;0.000;0.000;2023-05-25T01:41:02;93758.03;;;11.41;71.52
76086;BME280;64791;0.000;0.000;2023-05-25T01:43:27;93752.13;;;11.37;72.60
76086;BME280;64791;0.000;0.000;2023-05-25T01:45:55;93758.59;;;11.24;73.09
76086;BME280;64791;0.000;0.000;2023-05-25T01:48:24;93754.75;;;11.20;73.51
76086;BME280;64791;0.000;0.000;2023-05-25T01:50:55;93759.94;;;11.08;73.23
76086;BME280;64791;0.000;0.000;2023-05-25T01:53:25;93757.53;;;11.05;72.40
76086;BME280;64791;0.000;0.000;2023-05-25T01:55:54;93759.03;;;10.91;72.99
76086;BME280;64791;0.000;0.000;2023-05-25T01:58:23;93756.47;;;10.78;74.42
76086;BME280;64791;0.000;0.000;2023-05-25T02:00:50;93764.53;;;10.76;74.88
76086;BME280;64791;0.000;0.000;2023-05-25T02:03:17;93758.66;;;10.72;74.95
76086;BME280;64791;0.000;0.000;2023-05-25T02:05:43;93764.13;;;10.49;75.27
76086;BME280;64791;0.000;0.000;2023-05-25T02:08:08;93762.69;;;10.48;75.76
76086;BME280;64791;0.000;0.000;2023-05-25T02:10:34;93756.03;;;10.51;74.97
76086;BME280;64791;0.000;0.000;2023-05-25T02:12:59;93765.97;;;10.39;76.16
76086;BME280;64791;0.000;0.000;2023-05-25T02:15:26;93767.81;;;10.44;76.03
76086;BME280;64791;0.000;0.000;2023-05-25T02:17:52;93766.53;;;10.37;76.24
76086;BME280;64791;0.000;0.000;2023-05-25T02:20:22;93773.84;;;10.20;76.42
76086;BME280;64791;0.000;0.000;2023-05-25T02:22:47;93772.16;;;10.17;76.87
76086;BME280;64791;0.000;0.000;2023-05-25T02:25:13;93774.03;;;10.22;77.28
76086;BME280;64791;0.000;0.000;2023-05-25T02:27:39;93770.75;;;10.38;76.42
76086;BME280;64791;0.000;0.000;2023-05-25T02:30:06;93769.13;;;10.50;76.48
76086;BME280;64791;0.000;0.000;2023-05-25T02:32:32;93768.06;;;10.76;75.72
76086;BME280;64791;0.000;0.000;2023-05-25T02:34:58;93770.06;;;10.76;75.11
76086;BME280;64791;0.000;0.000;2023-05-25T02:37:24;93766.03;;;10.69;75.27
76086;BME280;64791;0.000;0.000;2023-05-25T02:39:49;93769.34;;;10.83;74.91
76086;BME280;64791;0.000;0.000;2023-05-25T02:42:15;93772.09;;;10.83;75.21
76086;BME280;64791;0.000;0.000;2023-05-25T02:44:41;93773.19;;;10.87;75.32
76086;BME280;64791;0.000;0.000;2023-05-25T02:47:16;93774.84;;;10.90;74.89
76086;BME280;64791;0.000;0.000;2023-05-25T02:49:45;93777.25;;;10.94;74.99
76086;BME280;64791;0.000;0.000;2023-05-25T02:52:11;93783.47;;;10.94;74.79
76086;BME280;64791;0.000;0.000;2023-05-25T02:54:37;93791.94;;;11.11;73.98
76086;BME280;64791;0.000;0.000;2023-05-25T02:57:04;93787.88;;;11.12;74.42
76086;BME280;64791;0.000;0.000;2023-05-25T02:59:29;93786.78;;;11.08;75.16
76086;BME280;64791;0.000;0.000;2023-05-25T03:01:57;93793.59;;;11.14;75.69
76086;BME280;64791;0.000;0.000;2023-05-25T03:04:23;93789.91;;;11.12;75.04
76086;BME280;64791;0.000;0.000;2023-05-25T03:06:48;93789.91;;;11.12;75.79
76086;BME280;64791;0.000;0.000;2023-05-25T03:09:17;93796.88;;;11.28;75.79
76086;BME280;64791;0.000;0.000;2023-05-25T03:11:45;93794.28;;;11.45;75.03
76086;BME280;64791;0.000;0.000;2023-05-25T03:14:14;93796.09;;;11.50;74.52
76086;BME280;64791;0.000;0.000;2023-05-25T03:16:42;93793.72;;;11.39;74.02
76086;BME280;64791;0.000;0.000;2023-05-25T03:19:08;93801.13;;;11.21;75.37
76086;BME280;64791;0.000;0.000;2023-05-25T03:21:36;93805.34;;;11.22;75.84
76086;BME280;64791;0.000;0.000;2023-05-25T03:24:01;93804.81;;;11.24;75.34
76086;BME280;64791;0.000;0.000;2023-05-25T03:26:27;93804.63;;;11.14;74.14
76086;BME280;64791;0.000;0.000;2023-05-25T03:28:55;93808.47;;;11.11;74.58
76086;BME280;64791;0.000;0.000;2023-05-25T03:31:21;93816.06;;;10.96;75.87
76086;BME280;64791;0.000;0.000;2023-05-25T03:33:47;93810.16;;;10.77;76.72
76086;BME280;64791;0.000;0.000;2023-05-25T03:36:13;93815.81;;;10.64;76.94
76086;BME280;64791;0.000;0.000;2023-05-25T03:38:42;93816.19;;;10.60;75.72
76086;BME280;64791;0.000;0.000;2023-05-25T03:41:09;93810.09;;;10.54;77.19
76086;BME280;64791;0.000;0.000;2023-05-25T03:43:35;93818.00;;;10.57;76.76
76086;BME280;64791;0.000;0.000;2023-05-25T03:46:02;93816.91;;;10.61;76.74
76086;BME280;64791;0.000;0.000;2023-05-25T03:48:28;93827.22;;;10.60;77.75
76086;BME280;64791;0.000;0.000;2023-05-25T03:50:54;93825.94;;;10.61;78.18
76086;BME280;64791;0.000;0.000;2023-05-25T03:53:20;93826.31;;;10.65;78.83
76086;BME280;64791;0.000;0.000;2023-05-25T03:55:47;93830.72;;;10.61;78.26
76086;BME280;64791;0.000;0.000;2023-05-25T03:58:16;93830.59;;;10.89;78.30
76086;BME280;64791;0.000;0.000;2023-05-25T04:00:42;93835.91;;;11.17;78.01
76086;BME280;64791;0.000;0.000;2023-05-25T04:03:08;93837.38;;;11.41;77.28
76086;BME280;64791;0.000;0.000;2023-05-25T04:05:35;93833.69;;;11.38;76.30
76086;BME280;64791;0.000;0.000;2023-05-25T04:08:01;93836.97;;;11.44;76.60
76086;BME280;64791;0.000;0.000;2023-05-25T04:10:27;93836.56;;;11.70;76.19
76086;BME280;64791;0.000;0.000;2023-05-25T04:12:53;93837.75;;;11.99;75.33
76086;BME280;64791;0.000;0.000;2023-05-25T04:15:21;93832.69;;;12.28;75.40
76086;BME280;64791;0.000;0.000;2023-05-25T04:18:07;93837.88;;;12.56;74.72
76086;BME280;64791;0.000;0.000;2023-05-25T04:20:32;93832.09;;;12.69;73.98
76086;BME280;64791;0.000;0.000;2023-05-25T04:22:59;93832.88;;;12.62;74.24
76086;BME280;64791;0.000;0.000;2023-05-25T04:25:25;93834.19;;;12.61;74.36
76086;BME280;64791;0.000;0.000;2023-05-25T04:27:51;93844.34;;;12.59;73.97
76086;BME280;64791;0.000;0.000;2023-05-25T04:30:32;93852.81;;;12.61;74.61
76086;BME280;64791;0.000;0.000;2023-05-25T04:33:17;93857.25;;;12.89;74.84
76086;BME280;64791;0.000;0.000;2023-05-25T04:36:06;93855.66;;;13.27;75.01
76086;BME280;64791;0.000;0.000;2023-05-25T04:38:35;93850.28;;;13.71;73.74
76086;BME280;64791;0.000;0.000;2023-05-25T04:41:02;93851.34;;;14.27;71.56
76086;BME280;64791;0.000;0.000;2023-05-25T04:43:29;93835.78;;;14.85;70.30
76086;BME280;64791;0.000;0.000;2023-05-25T04:45:55;93836.72;;;15.33;67.69
76086;BME280;64791;0.000;0.000;2023-05-25T04:48:22;93835.63;;;15.55;68.21
76086;BME280;64791;0.000;0.000;2023-05-25T04:50:49;93840.19;;;15.70;67.83
76086;BME280;64791;0.000;0.000;2023-05-25T04:53:14;93846.81;;;16.13;67.61
76086;BME280;64791;0.000;0.000;2023-05-25T04:55:40;93845.66;;;16.54;66.86
76086;BME280;64791;0.000;0.000;2023-05-25T04:58:06;93849.25;;;16.85;65.47
76086;BME280;64791;0.000;0.000;2023-05-25T05:00:32;93843.63;;;17.04;63.80
76086;BME280;64791;0.000;0.000;2023-05-25T05:03:00;93845.63;;;17.13;63.18
76086;BME280;64791;0.000;0.000;2023-05-25T05:05:26;93850.72;;;17.26;63.45
76086;BME280;64791;0.000;0.000;2023-05-25T05:07:53;93854.59;;;17.42;63.33
76086;BME280;64791;0.000;0.000;2023-05-25T05:10:19;93848.63;;;17.36;62.05
76086;BME280;64791;0.000;0.000;2023-05-25T05:12:49;93857.38;;;17.52;61.93
76086;BME280;64791;0.000;0.000;2023-05-25T05:15:15;93857.19;;;17.60;61.14
76086;BME280;64791;0.000;0.000;2023-05-25T05:17:44;93847.38;;;17.80;61.24
76086;BME280;64791;0.000;0.000;2023-05-25T05:20:12;93851.06;;;18.03;61.16
76086;BME280;64791;0.000;0.000;2023-05-25T05:22:38;93851.13;;;18.15;61.30
76086;BME280;64791;0.000;0.000;2023-05-25T05:25:04;93849.97;;;18.30;60.98
76086;BME280;64791;0.000;0.000;2023-05-25T05:27:30;93854.06;;;18.38;59.85
76086;BME280;64791;0.000;0.000;2023-05-25T05:30:01;93861.78;;;18.61;60.20
76086;BME280;64791;0.000;0.000;2023-05-25T05:32:26;93857.97;;;18.89;59.45
76086;BME280;64791;0.000;0.000;2023-05-25T05:34:53;93857.97;;;18.89;58.07
76086;BME280;64791;0.000;0.000;2023-05-25T05:37:32;93861.59;;;19.24;58.24
76086;BME280;64791;0.000;0.000;2023-05-25T05:39:58;93869.53;;;19.39;57.59
76086;BME280;64791;0.000;0.000;2023-05-25T05:42:24;93859.19;;;19.65;57.73
76086;BME280;64791;0.000;0.000;2023-05-25T05:44:51;93860.88;;;19.93;57.22
76086;BME280;64791;0.000;0.000;2023-05-25T05:47:16;93860.03;;;19.79;55.98
76086;BME280;64791;0.000;0.000;2023-05-25T05:49:42;93854.06;;;20.08;56.65
76086;BME280;64791;0.000;0.000;2023-05-25T05:52:08;93856.16;;;20.32;55.18
76086;BME280;64791;0.000;0.000;2023-05-25T05:54:34;93864.34;;;20.65;55.94
76086;BME280;64791;0.000;0.000;2023-05-25T05:57:05;93863.03;;;20.91;55.08
76086;BME280;64791;0.000;0.000;2023-05-25T05:59:31;93870.06;;;20.67;55.03
76086;BME280;64791;0.000;0.000;2023-05-25T06:01:57;93869.22;;;20.65;55.28
76086;BME280;64791;0.000;0.000;2023-05-25T06:04:23;93867.59;;;20.73;54.59
76086;BME280;64791;0.000;0.000;2023-05-25T06:06:53;93870.66;;;21.02;53.62
76086;BME280;64791;0.000;0.000;2023-05-25T06:09:19;93864.50;;;20.92;54.12
76086;BME280;64791;0.000;0.000;2023-05-25T06:11:45;93865.03;;;20.77;54.02
76086;BME280;64791;0.000;0.000;2023-05-25T06:14:11;93860.81;;;21.15;52.76
76086;BME280;64791;0.000;0.000;2023-05-25T06:16:37;93867.91;;;21.68;51.76
76086;BME280;64791;0.000;0.000;2023-05-25T06:19:03;93859.50;;;21.96;51.05
76086;BME280;64791;0.000;0.000;2023-05-25T06:21:28;93865.41;;;22.15;50.48
76086;BME280;64791;0.000;0.000;2023-05-25T06:23:54;93870.19;;;22.26;51.90
76086;BME280;64791;0.000;0.000;2023-05-25T06:26:22;93877.16;;;22.52;50.86
76086;BME280;64791;0.000;0.000;2023-05-25T06:28:48;93882.91;;;22.84;51.13
76086;BME280;64791;0.000;0.000;2023-05-25T06:31:14;93876.47;;;22.97;48.27
76086;BME280;64791;0.000;0.000;2023-05-25T06:33:40;93878.63;;;22.83;47.81
76086;BME280;64791;0.000;0.000;2023-05-25T06:36:07;93879.47;;;23.14;47.26
76086;BME280;64791;0.000;0.000;2023-05-25T06:38:32;93884.88;;;23.55;48.78
76086;BME280;64791;0.000;0.000;2023-05-25T06:40:58;93884.38;;;23.74;47.93
76086;BME280;64791;0.000;0.000;2023-05-25T06:43:29;93884.97;;;23.73;47.57
76086;BME280;64791;0.000;0.000;2023-05-25T06:46:08;93890.25;;;23.65;45.79
76086;BME280;64791;0.000;0.000;2023-05-25T06:48:37;93879.81;;;23.98;46.06
76086;BME280;64791;0.000;0.000;2023-05-25T06:51:03;93874.09;;;24.12;43.46
76086;BME280;64791;0.000;0.000;2023-05-25T06:53:29;93885.63;;;24.18;44.08
76086;BME280;64791;0.000;0.000;2023-05-25T06:55:55;93885.69;;;24.36;44.29
76086;BME280;64791;0.000;0.000;2023-05-25T06:58:21;93887.69;;;24.33;44.11
76086;BME280;64791;0.000;0.000;2023-05-25T07:00:47;93882.28;;;24.39;43.07
76086;BME280;64791;0.000;0.000;2023-05-25T07:03:12;93875.38;;;24.93;44.70
76086;BME280;64791;0.000;0.000;2023-05-25T07:05:38;93877.22;;;25.39;43.12
76086;BME280;64791;0.000;0.000;2023-05-25T07:08:03;93874.09;;;25.49;42.75
76086;BME280;64791;0.000;0.000;2023-05-25T07:10:29;93865.44;;;25.63;41.76
76086;BME280;64791;0.000;0.000;2023-05-25T07:12:55;93872.22;;;25.73;41.34
76086;BME280;64791;0.000;0.000;2023-05-25T07:15:20;93858.09;;;25.93;41.57
76086;BME280;64791;0.000;0.000;2023-05-25T07:17:47;93867.06;;;25.87;40.39
76086;BME280;64791;0.000;0.000;2023-05-25T07:20:12;93864.44;;;25.93;40.43
76086;BME280;64791;0.000;0.000;2023-05-25T07:22:38;93856.19;;;26.19;39.00
76086;BME280;64791;0.000;0.000;2023-05-25T07:25:04;93868.00;;;26.33;39.45
76086;BME280;64791;0.000;0.000;2023-05-25T07:27:30;93864.53;;;26.54;38.61
76086;BME280;64791;0.000;0.000;2023-05-25T07:29:55;93864.53;;;26.76;40.25
76086;BME280;64791;0.000;0.000;2023-05-25T07:32:21;93869.44;;;27.17;39.22
76086;BME280;64791;0.000;0.000;2023-05-25T07:34:47;93873.94;;;27.47;37.45
76086;BME280;64791;0.000;0.000;2023-05-25T07:37:12;93875.41;;;27.72;36.99
76086;BME280;64791;0.000;0.000;2023-05-25T07:39:38;93877.34;;;27.89;37.96
76086;BME280;64791;0.000;0.000;2023-05-25T07:42:04;93876.19;;;27.98;37.53
76086;BME280;64791;0.000;0.000;2023-05-25T07:44:30;93886.81;;;27.98;36.92
76086;BME280;64791;0.000;0.000;2023-05-25T07:46:56;93895.25;;;27.05;38.37
76086;BME280;64791;0.000;0.000;2023-05-25T07:49:22;93898.75;;;26.43;39.33
76086;BME280;64791;0.000;0.000;2023-05-25T07:51:47;93898.97;;;25.72;40.46
76086;BME280;64791;0.000;0.000;2023-05-25T07:54:13;93906.13;;;25.03;42.21
76086;BME280;64791;0.000;0.000;2023-05-25T07:56:38;93917.13;;;24.46;43.86
76086;BME280;64791;0.000;0.000;2023-05-25T07:59:04;93916.53;;;24.16;44.40
76086;BME280;64791;0.000;0.000;2023-05-25T08:01:30;93922.34;;;23.73;45.39
76086;BME280;64791;0.000;0.000;2023-05-25T08:03:56;93926.78;;;23.63;45.30
76086;BME280;64791;0.000;0.000;2023-05-25T08:06:22;93936.53;;;23.30;46.27
76086;BME280;64791;0.000;0.000;2023-05-25T08:08:48;93930.72;;;22.84;47.61
76086;BME280;64791;0.000;0.000;2023-05-25T08:11:14;93933.38;;;22.39;49.05
76086;BME280;64791;0.000;0.000;2023-05-25T08:13:41;93936.38;;;22.02;50.48
76086;BME280;64791;0.000;0.000;2023-05-25T08:16:07;93937.03;;;21.62;51.55
76086;BME280;64791;0.000;0.000;2023-05-25T08:18:33;93941.28;;;21.24;52.20
76086;BME280;64791;0.000;0.000;2023-05-25T08:20:59;93945.44;;;20.98;53.56
76086;BME280;64791;0.000;0.000;2023-05-25T08:23:25;93943.16;;;20.83;54.71
76086;BME280;64791;0.000;0.000;2023-05-25T08:25:51;93936.22;;;20.72;56.13
76086;BME280;64791;0.000;0.000;2023-05-25T08:28:18;93934.97;;;20.38;57.00
76086;BME280;64791;0.000;0.000;2023-05-25T08:30:44;93927.94;;;20.26;57.69
76086;BME280;64791;0.000;0.000;2023-05-25T08:33:10;93933.78;;;19.95;58.61
76086;BME280;64791;0.000;0.000;2023-05-25T08:35:35;93929.66;;;19.85;58.73
76086;BME280;64791;0.000;0.000;2023-05-25T08:38:05;93934.75;;;20.11;59.30
76086;BME280;64791;0.000;0.000;2023-05-25T08:40:31;93942.31;;;19.74;59.71
76086;BME280;64791;0.000;0.000;2023-05-25T08:42:57;93946.69;;;19.77;60.60
76086;BME280;64791;0.000;0.000;2023-05-25T08:45:22;93950.44;;;19.82;61.56
76086;BME280;64791;0.000;0.000;2023-05-25T08:47:48;93946.78;;;19.56;60.76
76086;BME280;64791;0.000;0.000;2023-05-25T08:50:18;93941.69;;;19.52;61.20
76086;BME280;64791;0.000;0.000;2023-05-25T08:52:44;93947.50;;;19.45;62.22
76086;BME280;64791;0.000;0.000;2023-05-25T08:55:11;93951.50;;;19.53;59.71
76086;BME280;64791;0.000;0.000;2023-05-25T08:57:52;93967.56;;;19.41;60.20
76086;BME280;64791;0.000;0.000;2023-05-25T09:00:20;93966.63;;;19.48;61.06
76086;BME280;64791;0.000;0.000;2023-05-25T09:05:18;93983.69;;;19.76;59.47
76086;BME280;64791;0.000;0.000;2023-05-25T09:07:43;93978.06;;;19.76;59.53
76086;BME280;64791;0.000;0.000;2023-05-25T09:10:10;93983.19;;;19.68;58.51
76086;BME280;64791;0.000;0.000;2023-05-25T09:12:35;93977.19;;;19.50;58.65
76086;BME280;64791;0.000;0.000;2023-05-25T09:15:02;93988.25;;;19.48;57.66
76086;BME280;64791;0.000;0.000;2023-05-25T09:17:28;93986.84;;;19.70;57.28
76086;BME280;64791;0.000;0.000;2023-05-25T09:19:54;93987.09;;;19.74;57.89
76086;BME280;64791;0.000;0.000;2023-05-25T09:22:20;93978.47;;;19.93;57.53
76086;BME280;64791;0.000;0.000;2023-05-25T09:24:46;93968.13;;;20.19;57.50
76086;BME280;64791;0.000;0.000;2023-05-25T09:27:15;93966.53;;;20.16;57.60
76086;BME280;64791;0.000;0.000;2023-05-25T09:29:42;93966.50;;;20.51;56.47
76086;BME280;64791;0.000;0.000;2023-05-25T09:32:07;93967.06;;;20.72;56.50
76086;BME280;64791;0.000;0.000;2023-05-25T09:34:33;93956.50;;;21.07;54.72
76086;BME280;64791;0.000;0.000;2023-05-25T09:36:59;93962.03;;;21.69;53.38
76086;BME280;64791;0.000;0.000;2023-05-25T09:39:25;93959.03;;;21.79;52.64
76086;BME280;64791;0.000;0.000;2023-05-25T09:41:51;93960.88;;;22.40;52.07
76086;BME280;64791;0.000;0.000;2023-05-25T09:44:17;93952.13;;;22.61;51.65
76086;BME280;64791;0.000;0.000;2023-05-25T09:46:43;93952.72;;;22.74;50.14
76086;BME280;64791;0.000;0.000;2023-05-25T09:49:09;93954.97;;;23.33;48.49
76086;BME280;64791;0.000;0.000;2023-05-25T09:51:35;93954.94;;;23.18;46.78
76086;BME280;64791;0.000;0.000;2023-05-25T09:54:04;93945.03;;;23.17;47.06
76086;BME280;64791;0.000;0.000;2023-05-25T09:56:33;93948.38;;;23.00;47.49
76086;BME280;64791;0.000;0.000;2023-05-25T09:58:59;93940.78;;;23.16;47.62
76086;BME280;64791;0.000;0.000;2023-05-25T10:01:25;93929.53;;;23.31;46.32
76086;BME280;64791;0.000;0.000;2023-05-25T10:03:51;93936.03;;;23.20;48.11
76086;BME280;64791;0.000;0.000;2023-05-25T10:06:22;93920.88;;;23.72;45.39
76086;BME280;64791;0.000;0.000;2023-05-25T10:08:48;93922.44;;;24.06;46.32
76086;BME280;64791;0.000;0.000;2023-05-25T10:11:15;93913.09;;;24.84;45.42
76086;BME280;64791;0.000;0.000;2023-05-25T10:13:44;93910.00;;;25.46;39.74
76086;BME280;64791;0.000;0.000;2023-05-25T10:16:11;93892.94;;;25.62;39.85
76086;BME280;64791;0.000;0.000;2023-05-25T10:18:54;93895.38;;;26.46;38.00
76086;BME280;64791;0.000;0.000;2023-05-25T10:21:21;93890.31;;;26.64;37.62
76086;BME280;64791;0.000;0.000;2023-05-25T10:23:50;93897.06;;;26.96;37.13
76086;BME280;64791;0.000;0.000;2023-05-25T10:26:17;93889.19;;;27.36;37.38
76086;BME280;64791;0.000;0.000;2023-05-25T10:28:44;93890.38;;;27.07;37.51
76086;BME280;64791;0.000;0.000;2023-05-25T10:31:10;93892.63;;;26.48;38.14
76086;BME280;64791;0.000;0.000;2023-05-25T10:33:36;93891.78;;;26.26;40.64
76086;BME280;64791;0.000;0.000;2023-05-25T10:36:02;93886.44;;;25.95;39.60
76086;BME280;64791;0.000;0.000;2023-05-25T10:38:29;93877.81;;;25.91;40.49
76086;BME280;64791;0.000;0.000;2023-05-25T10:40:57;93889.69;;;25.50;40.63
76086;BME280;64791;0.000;0.000;2023-05-25T10:43:23;93882.41;;;25.27;41.95
76086;BME280;64791;0.000;0.000;2023-05-25T10:45:50;93877.16;;;25.02;41.41
76086;BME280;64791;0.000;0.000;2023-05-25T10:48:16;93879.94;;;24.67;42.42
76086;BME280;64791;0.000;0.000;2023-05-25T10:50:41;93864.63;;;24.39;43.12
76086;BME280;64791;0.000;0.000;2023-05-25T10:53:14;93871.88;;;24.10;42.62
76086;BME280;64791;0.000;0.000;2023-05-25T10:55:49;93878.00;;;23.89;44.83
76086;BME280;64791;0.000;0.000;2023-05-25T10:58:25;93881.34;;;23.70;44.96
76086;BME280;64791;0.000;0.000;2023-05-25T11:06:07;93870.31;;;23.29;46.89
76086;BME280;64791;0.000;0.000;2023-05-25T11:11:18;93867.16;;;23.68;46.86
76086;BME280;64791;0.000;0.000;2023-05-25T11:13:47;93863.75;;;23.85;45.19
76086;BME280;64791;0.000;0.000;2023-05-25T11:18:55;93861.13;;;24.38;43.20
76086;BME280;64791;0.000;0.000;2023-05-25T11:23:52;93864.31;;;24.81;42.08
76086;BME280;64791;0.000;0.000;2023-05-25T11:26:19;93860.31;;;24.86;41.34
76086;BME280;64791;0.000;0.000;2023-05-25T11:28:46;93858.97;;;24.54;41.72
76086;BME280;64791;0.000;0.000;2023-05-25T11:31:12;93853.94;;;24.35;42.54
76086;BME280;64791;0.000;0.000;2023-05-25T11:33:38;93862.97;;;24.16;44.75
76086;BME280;64791;0.000;0.000;2023-05-25T11:36:04;93862.31;;;23.84;44.84
76086;BME280;64791;0.000;0.000;2023-05-25T11:38:30;93855.09;;;23.97;44.47
76086;BME280;64791;0.000;0.000;2023-05-25T11:40:57;93852.19;;;24.44;44.93
76086;BME280;64791;0.000;0.000;2023-05-25T11:43:23;93849.94;;;25.09;43.26
76086;BME280;64791;0.000;0.000;2023-05-25T11:45:53;93846.28;;;25.61;43.60
76086;BME280;64791;0.000;0.000;2023-05-25T11:48:20;93845.25;;;26.09;42.49
76086;BME280;64791;0.000;0.000;2023-05-25T11:50:46;93843.91;;;26.52;42.20
76086;BME280;64791;0.000;0.000;2023-05-25T11:53:12;93839.72;;;26.53;41.59
76086;BME280;64791;0.000;0.000;2023-05-25T11:55:39;93839.00;;;26.32;41.50
76086;BME280;64791;0.000;0.000;2023-05-25T11:58:07;93833.34;;;26.13;40.86
76086;BME280;64791;0.000;0.000;2023-05-25T12:00:33;93844.81;;;26.17;41.24
76086;BME280;64791;0.000;0.000;2023-05-25T12:02:58;93840.81;;;26.44;40.99
76086;BME280;64791;0.000;0.000;2023-05-25T12:05:24;93846.59;;;25.69;41.97
76086;BME280;64791;0.000;0.000;2023-05-25T12:07:50;93845.78;;;25.29;43.43
76086;BME280;64791;0.000;0.000;2023-05-25T12:10:15;93842.19;;;25.09;42.78
76086;BME280;64791;0.000;0.000;2023-05-25T12:12:42;93840.47;;;24.84;44.39
76086;BME280;64791;0.000;0.000;2023-05-25T12:15:09;93842.50;;;25.17;43.95
76086;BME280;64791;0.000;0.000;2023-05-25T12:17:35;93837.88;;;25.43;43.89
76086;BME280;64791;0.000;0.000;2023-05-25T12:20:00;93835.03;;;25.43;43.58
76086;BME280;64791;0.000;0.000;2023-05-25T12:22:26;93836.50;;;25.27;44.00
76086;BME280;64791;0.000;0.000;2023-05-25T12:24:52;93828.63;;;25.60;43.54
76086;BME280;64791;0.000;0.000;2023-05-25T12:27:18;93821.09;;;25.87;42.08
76086;BME280;64791;0.000;0.000;2023-05-25T12:29:45;93818.47;;;26.12;42.89
76086;BME280;64791;0.000;0.000;2023-05-25T12:32:12;93821.94;;;26.30;42.11
76086;BME280;64791;0.000;0.000;2023-05-25T12:34:37;93816.03;;;26.64;41.26
76086;BME280;64791;0.000;0.000;2023-05-25T12:37:03;93807.44;;;26.83;41.12
76086;BME280;64791;0.000;0.000;2023-05-25T12:41:58;93795.56;;;27.08;40.28
76086;BME280;64791;0.000;0.000;2023-05-25T12:44:27;93804.47;;;27.23;40.00
76086;BME280;64791;0.000;0.000;2023-05-25T12:47:18;93800.94;;;27.00;38.38
76086;BME280;64791;0.000;0.000;2023-05-25T12:49:46;93797.53;;;27.04;38.39
76086;BME280;64791;0.000;0.000;2023-05-25T12:55:25;93792.44;;;27.00;39.78
76086;BME280;64791;0.000;0.000;2023-05-25T13:00:20;93787.41;;;27.21;37.25
76086;BME280;64791;0.000;0.000;2023-05-25T13:02:46;93773.91;;;27.43;37.50
76086;BME280;64791;0.000;0.000;2023-05-25T13:05:18;93775.00;;;27.32;37.32
76086;BME280;64791;0.000;0.000;2023-05-25T13:07:44;93767.22;;;27.79;36.57
76086;BME280;64791;0.000;0.000;2023-05-25T13:10:13;93763.97;;;27.65;35.00
76086;BME280;64791;0.000;0.000;2023-05-25T13:12:40;93759.06;;;27.94;34.53
76086;BME280;64791;0.000;0.000;2023-05-25T13:15:06;93759.09;;;27.44;35.35
76086;BME280;64791;0.000;0.000;2023-05-25T13:17:31;93753.28;;;27.64;35.15
76086;BME280;64791;0.000;0.000;2023-05-25T13:19:57;93761.75;;;27.88;35.85
76086;BME280;64791;0.000;0.000;2023-05-25T13:22:23;93760.03;;;27.76;35.63
76086;BME280;64791;0.000;0.000;2023-05-25T13:24:50;93756.09;;;28.15;33.19
76086;BME280;64791;0.000;0.000;2023-05-25T13:27:15;93753.97;;;28.41;32.84
76086;BME280;64791;0.000;0.000;2023-05-25T13:29:41;93752.22;;;28.03;33.31
76086;BME280;64791;0.000;0.000;2023-05-25T13:32:06;93750.28;;;28.09;32.99